Time;durP1;ratioP1;P1;durP2;ratioP2;P2;SDS_P1;SDS_P2;PMS_P1;PMS_P2;Temp;Humidity;BMP_temperature;BMP_pressure;BME280_temperature;BME280_humidity;BME280_pressure;Samples;Min_cycle;Max_cycle;Signal;HPM_P1;HPM_P2
2023/06/14 00:02:08;;;;;;;;;;;20.30;62.40;;;;;;5027048;28;1034;-66
2023/06/14 00:04:34;;;;;;;;;;;20.30;62.40;;;;;;5028021;28;1369;-66
2023/06/14 00:07:00;;;;;;;;;;;20.30;62.50;;;;;;5023667;28;1623;-66
2023/06/14 00:09:25;;;;;;;;;;;20.30;62.50;;;;;;5027426;28;747;-66
2023/06/14 00:11:51;;;;;;;;;;;20.30;62.50;;;;;;5028093;28;886;-66
2023/06/14 00:14:16;;;;;;;;;;;20.30;62.50;;;;;;5027959;28;1385;-67
2023/06/14 00:16:42;;;;;;;;;;;20.30;62.60;;;;;;5018700;28;771;-66
2023/06/14 00:19:10;;;;;;;;;;;20.30;62.60;;;;;;5030879;28;907;-66
2023/06/14 00:21:36;;;;;;;;;;;20.30;62.60;;;;;;5029657;28;1963;-66
2023/06/14 00:24:02;;;;;;;;;;;20.30;62.70;;;;;;5028779;28;1251;-66
2023/06/14 00:26:27;;;;;;;;;;;20.40;62.80;;;;;;5031471;28;1128;-66
2023/06/14 00:28:53;;;;;;;;;;;20.30;62.70;;;;;;5030079;28;1418;-67
2023/06/14 00:31:19;;;;;;;;;;;20.30;62.80;;;;;;5029836;28;825;-66
2023/06/14 00:33:44;;;;;;;;;;;20.30;62.80;;;;;;5031324;28;1269;-66
2023/06/14 00:36:10;;;;;;;;;;;20.30;62.90;;;;;;5032261;28;916;-66
2023/06/14 00:38:35;;;;;;;;;;;20.30;62.90;;;;;;5031161;28;1010;-66
2023/06/14 00:41:01;;;;;;;;;;;20.30;62.90;;;;;;5030386;28;1977;-66
2023/06/14 00:43:26;;;;;;;;;;;20.30;62.90;;;;;;5031226;28;1796;-66
2023/06/14 00:45:52;;;;;;;;;;;20.40;63.00;;;;;;5031409;28;915;-66
2023/06/14 00:48:17;;;;;;;;;;;20.30;63.00;;;;;;5029468;28;990;-66
2023/06/14 00:50:45;;;;;;;;;;;20.30;63.00;;;;;;5030933;28;1232;-66
2023/06/14 00:53:11;;;;;;;;;;;20.40;63.10;;;;;;5031206;28;1415;-66
2023/06/14 00:55:37;;;;;;;;;;;20.30;63.00;;;;;;5029580;28;1275;-67
2023/06/14 00:58:02;;;;;;;;;;;20.30;63.10;;;;;;5027792;28;904;-66
2023/06/14 01:00:28;;;;;;;;;;;20.30;63.10;;;;;;5020838;28;1967;-66
2023/06/14 01:02:54;;;;;;;;;;;20.30;63.10;;;;;;5031197;28;832;-66
2023/06/14 01:05:20;;;;;;;;;;;20.30;63.10;;;;;;5031452;28;1376;-66
2023/06/14 01:07:59;;;;;;;;;;;20.30;63.20;;;;;;5031018;28;885;-66
2023/06/14 01:10:43;;;;;;;;;;;20.30;63.20;;;;;;5030439;28;960;-66
2023/06/14 01:13:12;;;;;;;;;;;20.30;63.20;;;;;;5030418;28;888;-66
2023/06/14 01:15:37;;;;;;;;;;;20.40;63.40;;;;;;5030600;28;1276;-67
2023/06/14 01:18:03;;;;;;;;;;;20.30;63.30;;;;;;5030543;28;1366;-66
2023/06/14 01:20:29;;;;;;;;;;;20.30;63.30;;;;;;5030857;28;1909;-66
2023/06/14 01:22:55;;;;;;;;;;;20.30;63.30;;;;;;5014105;28;1248;-66
2023/06/14 01:25:23;;;;;;;;;;;20.30;63.40;;;;;;5029881;28;1263;-66
2023/06/14 01:27:52;;;;;;;;;;;20.30;63.40;;;;;;5030569;28;1721;-67
2023/06/14 01:30:17;;;;;;;;;;;20.30;63.40;;;;;;5030607;28;923;-66
2023/06/14 01:32:42;;;;;;;;;;;20.30;63.50;;;;;;5027499;28;856;-66
2023/06/14 01:35:08;;;;;;;;;;;20.30;63.50;;;;;;5032108;28;1281;-67
2023/06/14 01:37:33;;;;;;;;;;;20.30;63.50;;;;;;5030744;28;892;-66
2023/06/14 01:39:59;;;;;;;;;;;20.30;63.50;;;;;;5029728;28;1902;-67
2023/06/14 01:42:25;;;;;;;;;;;20.30;63.50;;;;;;5028418;28;844;-66
2023/06/14 01:44:50;;;;;;;;;;;20.30;63.60;;;;;;5020874;28;1271;-66
2023/06/14 01:47:15;;;;;;;;;;;20.30;63.60;;;;;;5030357;28;998;-66
2023/06/14 01:49:41;;;;;;;;;;;20.30;63.60;;;;;;5030741;28;1184;-66
2023/06/14 01:52:09;;;;;;;;;;;20.30;63.60;;;;;;5030424;28;1261;-66
2023/06/14 01:54:37;;;;;;;;;;;20.30;63.60;;;;;;5027420;28;1229;-66
2023/06/14 01:57:03;;;;;;;;;;;20.30;63.70;;;;;;5029567;28;844;-66
2023/06/14 01:59:28;;;;;;;;;;;20.30;63.70;;;;;;5029698;28;772;-66
2023/06/14 02:01:54;;;;;;;;;;;20.30;63.70;;;;;;5030038;28;1902;-66
2023/06/14 02:04:19;;;;;;;;;;;20.30;63.70;;;;;;5029062;28;1265;-66
2023/06/14 02:06:45;;;;;;;;;;;20.30;63.80;;;;;;5030212;28;931;-66
2023/06/14 02:09:10;;;;;;;;;;;20.30;63.70;;;;;;5029654;28;863;-66
2023/06/14 02:11:36;;;;;;;;;;;20.30;63.80;;;;;;5028984;28;895;-66
2023/06/14 02:14:01;;;;;;;;;;;20.30;63.80;;;;;;5025590;28;1611;-66
2023/06/14 02:16:29;;;;;;;;;;;20.30;63.80;;;;;;5028147;28;902;-66
2023/06/14 02:18:55;;;;;;;;;;;20.30;63.80;;;;;;5030617;28;840;-66
2023/06/14 02:21:21;;;;;;;;;;;20.30;63.90;;;;;;5028983;28;1906;-66
2023/06/14 02:23:47;;;;;;;;;;;20.30;63.90;;;;;;5029254;28;1282;-66
2023/06/14 02:26:13;;;;;;;;;;;20.30;63.90;;;;;;5028490;28;820;-66
2023/06/14 02:28:38;;;;;;;;;;;20.30;63.90;;;;;;5030383;28;1414;-66
2023/06/14 02:31:04;;;;;;;;;;;20.30;63.90;;;;;;5028028;28;863;-66
2023/06/14 02:33:29;;;;;;;;;;;20.30;64.00;;;;;;5029954;28;1290;-66
2023/06/14 02:35:56;;;;;;;;;;;20.30;64.00;;;;;;5027789;28;793;-66
2023/06/14 02:38:21;;;;;;;;;;;20.30;64.00;;;;;;5026799;28;1293;-66
2023/06/14 02:40:47;;;;;;;;;;;20.30;64.00;;;;;;5028793;28;1970;-66
2023/06/14 02:43:12;;;;;;;;;;;20.30;64.00;;;;;;5027654;28;883;-66
2023/06/14 02:45:37;;;;;;;;;;;20.30;64.10;;;;;;5028348;28;1235;-66
2023/06/14 02:48:03;;;;;;;;;;;20.30;64.10;;;;;;5029102;28;872;-66
2023/06/14 02:50:30;;;;;;;;;;;20.30;64.10;;;;;;5028367;28;1284;-66
2023/06/14 02:52:56;;;;;;;;;;;20.30;64.10;;;;;;5029610;28;824;-66
2023/06/14 02:55:22;;;;;;;;;;;20.30;64.10;;;;;;5028500;28;1257;-66
2023/06/14 02:57:48;;;;;;;;;;;20.30;64.10;;;;;;5024369;28;978;-66
2023/06/14 03:00:13;;;;;;;;;;;20.30;64.10;;;;;;5028083;28;1899;-66
2023/06/14 03:02:39;;;;;;;;;;;20.30;64.10;;;;;;5028373;28;861;-66
2023/06/14 03:05:06;;;;;;;;;;;20.30;64.20;;;;;;5027851;28;1345;-66
2023/06/14 03:07:32;;;;;;;;;;;20.30;64.20;;;;;;5027685;28;887;-67
2023/06/14 03:09:58;;;;;;;;;;;20.30;64.20;;;;;;5029337;28;898;-66
2023/06/14 03:12:23;;;;;;;;;;;20.30;64.20;;;;;;5029054;28;844;-66
2023/06/14 03:14:50;;;;;;;;;;;20.30;64.20;;;;;;5025615;28;1295;-66
2023/06/14 03:17:17;;;;;;;;;;;20.30;64.30;;;;;;5027408;28;878;-66
2023/06/14 03:19:42;;;;;;;;;;;20.30;64.30;;;;;;5028720;28;1956;-67
2023/06/14 03:22:08;;;;;;;;;;;20.30;64.30;;;;;;5028507;28;1244;-66
2023/06/14 03:24:36;;;;;;;;;;;20.30;64.30;;;;;;5015815;28;1340;-66
2023/06/14 03:27:02;;;;;;;;;;;20.30;64.30;;;;;;5026434;28;1470;-66
2023/06/14 03:29:27;;;;;;;;;;;20.30;64.30;;;;;;5027618;28;1146;-66
2023/06/14 03:31:57;;;;;;;;;;;20.30;64.40;;;;;;5025004;28;868;-66
2023/06/14 03:34:22;;;;;;;;;;;20.30;64.40;;;;;;5025778;28;1347;-67
2023/06/14 03:36:47;;;;;;;;;;;20.30;64.40;;;;;;5027178;28;904;-66
2023/06/14 03:39:13;;;;;;;;;;;20.30;64.40;;;;;;5027310;28;782;-66
2023/06/14 03:41:38;;;;;;;;;;;20.30;64.40;;;;;;5026621;28;1971;-66
2023/06/14 03:44:04;;;;;;;;;;;20.30;64.40;;;;;;5027180;28;1263;-66
2023/06/14 03:46:30;;;;;;;;;;;20.30;64.50;;;;;;5026272;28;817;-66
2023/06/14 03:48:55;;;;;;;;;;;20.30;64.50;;;;;;5028575;28;808;-66
2023/06/14 03:51:22;;;;;;;;;;;20.30;64.50;;;;;;5027625;28;886;-66
2023/06/14 03:53:47;;;;;;;;;;;20.30;64.50;;;;;;5031198;28;1273;-66
2023/06/14 03:56:13;;;;;;;;;;;20.30;64.50;;;;;;5030306;28;879;-66
2023/06/14 03:58:38;;;;;;;;;;;20.30;64.50;;;;;;5031785;28;918;-66
2023/06/14 04:01:04;;;;;;;;;;;20.30;64.50;;;;;;5030453;28;1965;-66
2023/06/14 04:03:29;;;;;;;;;;;20.30;64.50;;;;;;5031622;28;1304;-66
2023/06/14 04:05:56;;;;;;;;;;;20.30;64.50;;;;;;5032398;28;967;-66
2023/06/14 04:08:22;;;;;;;;;;;20.30;64.60;;;;;;5032088;28;919;-66
2023/06/14 04:10:47;;;;;;;;;;;20.30;64.60;;;;;;5030318;28;914;-66
2023/06/14 04:13:13;;;;;;;;;;;20.30;64.60;;;;;;5031632;28;899;-67
2023/06/14 04:15:41;;;;;;;;;;;20.30;64.70;;;;;;5032273;28;1291;-66
2023/06/14 04:18:07;;;;;;;;;;;20.30;64.60;;;;;;5032129;28;867;-66
2023/06/14 04:20:33;;;;;;;;;;;20.30;64.70;;;;;;5029452;28;1961;-66
2023/06/14 04:23:05;;;;;;;;;;;20.30;64.70;;;;;;5031016;28;820;-66
2023/06/14 04:25:32;;;;;;;;;;;20.30;64.70;;;;;;5031024;28;1529;-66
2023/06/14 04:27:57;;;;;;;;;;;20.30;64.70;;;;;;5032532;28;1613;-66
2023/06/14 04:30:26;;;;;;;;;;;20.30;64.70;;;;;;5028544;28;931;-66
2023/06/14 04:32:55;;;;;;;;;;;20.30;64.70;;;;;;5032605;28;820;-66
2023/06/14 04:35:20;;;;;;;;;;;20.30;64.80;;;;;;5031392;28;1355;-66
2023/06/14 04:37:46;;;;;;;;;;;20.30;64.80;;;;;;5030692;28;855;-66
2023/06/14 04:40:12;;;;;;;;;;;20.30;64.80;;;;;;5030063;28;1901;-66
2023/06/14 04:42:38;;;;;;;;;;;20.30;64.80;;;;;;5029061;28;863;-66
2023/06/14 04:45:03;;;;;;;;;;;20.30;64.80;;;;;;5030946;28;1316;-66
2023/06/14 04:47:29;;;;;;;;;;;20.30;64.80;;;;;;5030133;28;837;-66
2023/06/14 04:49:56;;;;;;;;;;;20.30;64.90;;;;;;5031865;28;903;-66
2023/06/14 04:52:22;;;;;;;;;;;20.30;64.90;;;;;;5031486;28;1730;-66
2023/06/14 04:54:48;;;;;;;;;;;20.30;64.80;;;;;;5030802;28;1509;-67
2023/06/14 04:57:17;;;;;;;;;;;20.30;64.90;;;;;;5031270;28;823;-66
2023/06/14 04:59:43;;;;;;;;;;;20.30;64.80;;;;;;5031440;28;1961;-66
2023/06/14 05:02:10;;;;;;;;;;;20.30;64.90;;;;;;5030861;28;900;-67
2023/06/14 05:04:39;;;;;;;;;;;20.30;64.90;;;;;;5026964;28;2095;-67
2023/06/14 05:07:08;;;;;;;;;;;20.30;64.90;;;;;;5028149;28;1961;-67
2023/06/14 05:09:34;;;;;;;;;;;20.30;64.90;;;;;;5028212;28;1401;-69
2023/06/14 05:12:00;;;;;;;;;;;20.30;64.90;;;;;;5031183;28;1073;-68
2023/06/14 05:14:26;;;;;;;;;;;20.30;64.90;;;;;;5031963;28;1286;-67
2023/06/14 05:16:53;;;;;;;;;;;20.30;64.90;;;;;;5031043;28;1921;-67
2023/06/14 05:19:18;;;;;;;;;;;20.30;64.90;;;;;;5031506;28;1506;-68
2023/06/14 05:21:44;;;;;;;;;;;20.30;64.90;;;;;;5030334;28;1985;-71
2023/06/14 05:24:11;;;;;;;;;;;20.30;65.00;;;;;;5030372;28;1276;-71
2023/06/14 05:26:36;;;;;;;;;;;20.30;65.00;;;;;;5028210;28;882;-71
2023/06/14 05:29:02;;;;;;;;;;;20.30;65.00;;;;;;5030574;28;1404;-71
2023/06/14 05:31:28;;;;;;;;;;;20.30;65.00;;;;;;5027285;28;1018;-67
2023/06/14 05:33:53;;;;;;;;;;;20.30;65.00;;;;;;5028360;28;1251;-68
2023/06/14 05:36:22;;;;;;;;;;;20.30;65.00;;;;;;5031156;28;970;-67
2023/06/14 05:38:47;;;;;;;;;;;20.30;64.90;;;;;;5030919;28;900;-67
2023/06/14 05:41:13;;;;;;;;;;;20.30;64.90;;;;;;5024944;28;1914;-67
2023/06/14 05:43:38;;;;;;;;;;;20.30;65.20;;;;;;5029841;28;1268;-66
2023/06/14 05:46:04;;;;;;;;;;;20.30;65.00;;;;;;5029254;28;906;-66
2023/06/14 05:48:32;;;;;;;;;;;20.30;64.80;;;;;;5027205;28;829;-66
2023/06/14 05:50:58;;;;;;;;;;;20.30;64.60;;;;;;5026913;28;863;-67
2023/06/14 05:53:23;;;;;;;;;;;20.30;64.50;;;;;;5030830;28;820;-66
2023/06/14 05:55:50;;;;;;;;;;;20.30;64.40;;;;;;5028227;28;1367;-67
2023/06/14 05:58:15;;;;;;;;;;;20.30;64.30;;;;;;5030328;28;824;-67
2023/06/14 06:00:41;;;;;;;;;;;20.30;64.00;;;;;;5030436;28;1890;-67
2023/06/14 06:03:09;;;;;;;;;;;20.30;63.90;;;;;;5027677;28;863;-67
2023/06/14 06:05:34;;;;;;;;;;;20.30;64.00;;;;;;5021160;28;1988;-67
2023/06/14 06:08:00;;;;;;;;;;;20.30;63.90;;;;;;5019667;28;1364;-67
2023/06/14 06:10:25;;;;;;;;;;;20.30;63.90;;;;;;5029025;28;812;-67
2023/06/14 06:12:52;;;;;;;;;;;20.30;63.70;;;;;;5025684;28;876;-66
2023/06/14 06:15:18;;;;;;;;;;;20.30;63.60;;;;;;5026670;28;1303;-66
2023/06/14 06:17:44;;;;;;;;;;;20.30;63.60;;;;;;5029309;28;831;-67
2023/06/14 06:20:10;;;;;;;;;;;20.30;63.40;;;;;;5028201;28;1906;-66
2023/06/14 06:22:35;;;;;;;;;;;20.30;63.50;;;;;;5030604;28;816;-66
2023/06/14 06:25:01;;;;;;;;;;;20.30;63.60;;;;;;5029368;28;1361;-66
2023/06/14 06:27:26;;;;;;;;;;;20.30;63.30;;;;;;5028923;28;947;-66
2023/06/14 06:29:52;;;;;;;;;;;20.20;63.10;;;;;;5027125;28;836;-66
2023/06/14 06:32:18;;;;;;;;;;;20.30;63.20;;;;;;5024857;28;1240;-66
2023/06/14 06:34:43;;;;;;;;;;;20.30;63.10;;;;;;5024527;28;1609;-67
2023/06/14 06:37:09;;;;;;;;;;;20.30;63.90;;;;;;5026760;28;1014;-68
2023/06/14 06:39:34;;;;;;;;;;;20.30;63.40;;;;;;5028944;28;2110;-68
2023/06/14 06:42:00;;;;;;;;;;;20.30;63.20;;;;;;5027622;28;2478;-68
2023/06/14 06:44:25;;;;;;;;;;;20.30;63.10;;;;;;5025154;28;1381;-68
2023/06/14 06:46:51;;;;;;;;;;;20.30;63.10;;;;;;5029392;28;1961;-67
2023/06/14 06:49:16;;;;;;;;;;;20.20;63.10;;;;;;5026989;28;1357;-67
2023/06/14 06:51:42;;;;;;;;;;;20.30;63.20;;;;;;5028307;28;1510;-67
2023/06/14 06:54:08;;;;;;;;;;;20.30;63.10;;;;;;5030078;28;1346;-72
2023/06/14 06:56:34;;;;;;;;;;;20.20;63.10;;;;;;5026489;28;1182;-66
2023/06/14 06:58:59;;;;;;;;;;;20.30;63.10;;;;;;5020904;28;880;-66
2023/06/14 07:01:25;;;;;;;;;;;20.30;63.00;;;;;;5025793;28;1969;-66
2023/06/14 07:03:51;;;;;;;;;;;20.20;62.80;;;;;;5028856;28;1336;-66
2023/06/14 07:06:18;;;;;;;;;;;20.30;63.00;;;;;;5027448;28;904;-66
2023/06/14 07:08:44;;;;;;;;;;;20.20;62.80;;;;;;5028612;28;988;-66
2023/06/14 07:11:10;;;;;;;;;;;20.20;62.90;;;;;;5028002;28;823;-68
2023/06/14 07:13:35;;;;;;;;;;;20.30;63.40;;;;;;5025296;28;1289;-68
2023/06/14 07:16:01;;;;;;;;;;;20.30;63.30;;;;;;5019333;28;872;-68
2023/06/14 07:18:26;;;;;;;;;;;20.20;63.30;;;;;;5025396;28;851;-68
2023/06/14 07:20:53;;;;;;;;;;;20.30;63.70;;;;;;5025491;28;1982;-69
2023/06/14 07:23:19;;;;;;;;;;;20.30;63.90;;;;;;5025567;28;1317;-68
2023/06/14 07:25:44;;;;;;;;;;;20.30;64.00;;;;;;5026230;28;1354;-68
2023/06/14 07:28:10;;;;;;;;;;;20.30;64.10;;;;;;5026592;28;1396;-68
2023/06/14 07:30:35;;;;;;;;;;;20.40;64.40;;;;;;5030474;28;845;-68
2023/06/14 07:33:01;;;;;;;;;;;20.40;64.50;;;;;;5029010;28;896;-68
2023/06/14 07:35:26;;;;;;;;;;;20.40;64.80;;;;;;5027308;28;1314;-68
2023/06/14 07:37:52;;;;;;;;;;;20.50;64.90;;;;;;5027058;28;2016;-67
2023/06/14 07:40:18;;;;;;;;;;;20.50;64.90;;;;;;5026553;28;2156;-67
2023/06/14 07:42:43;;;;;;;;;;;20.50;64.90;;;;;;5028054;28;1463;-67
2023/06/14 07:45:09;;;;;;;;;;;20.50;64.80;;;;;;5028280;28;1361;-67
2023/06/14 07:47:34;;;;;;;;;;;20.50;64.80;;;;;;5026669;28;1026;-67
2023/06/14 07:50:00;;;;;;;;;;;20.50;64.90;;;;;;5027455;28;815;-67
2023/06/14 07:52:25;;;;;;;;;;;20.50;64.90;;;;;;5027799;28;947;-67
2023/06/14 07:54:51;;;;;;;;;;;20.50;65.70;;;;;;5026691;28;1260;-67
2023/06/14 07:57:16;;;;;;;;;;;20.50;65.00;;;;;;5028463;28;1140;-67
2023/06/14 07:59:42;;;;;;;;;;;20.60;65.10;;;;;;5026285;28;1011;-67
2023/06/14 08:02:07;;;;;;;;;;;20.50;65.10;;;;;;5028024;28;1970;-67
2023/06/14 08:04:33;;;;;;;;;;;20.50;65.20;;;;;;5024710;28;1435;-67
2023/06/14 08:06:59;;;;;;;;;;;20.60;65.40;;;;;;5026157;28;887;-67
2023/06/14 08:09:25;;;;;;;;;;;20.60;65.40;;;;;;5028747;28;892;-67
2023/06/14 08:11:50;;;;;;;;;;;20.60;65.70;;;;;;5028282;28;980;-67
2023/06/14 08:14:16;;;;;;;;;;;20.60;66.10;;;;;;5027604;28;1362;-68
2023/06/14 08:16:41;;;;;;;;;;;20.60;66.00;;;;;;5025986;28;999;-68
2023/06/14 08:19:07;;;;;;;;;;;20.70;66.10;;;;;;5027318;28;864;-67
2023/06/14 08:21:33;;;;;;;;;;;20.60;66.00;;;;;;5026847;28;1906;-67
2023/06/14 08:23:59;;;;;;;;;;;20.60;66.00;;;;;;5025308;28;1294;-68
2023/06/14 08:26:28;;;;;;;;;;;20.60;66.10;;;;;;5023915;28;839;-67
2023/06/14 08:28:54;;;;;;;;;;;20.70;66.10;;;;;;5028252;28;1489;-68
2023/06/14 08:31:20;;;;;;;;;;;20.70;66.30;;;;;;5027557;28;861;-67
2023/06/14 08:33:45;;;;;;;;;;;20.60;66.20;;;;;;5027166;28;1207;-67
2023/06/14 08:36:11;;;;;;;;;;;20.60;66.30;;;;;;5027882;28;898;-67
2023/06/14 08:38:37;;;;;;;;;;;20.60;66.30;;;;;;5029862;28;882;-67
2023/06/14 08:41:03;;;;;;;;;;;20.70;66.50;;;;;;5032236;28;1910;-68
2023/06/14 08:43:28;;;;;;;;;;;20.70;66.70;;;;;;5032184;28;1172;-67
2023/06/14 08:45:55;;;;;;;;;;;20.70;66.70;;;;;;5032176;28;2020;-67
2023/06/14 08:48:21;;;;;;;;;;;20.70;66.50;;;;;;5028221;28;1534;-67
2023/06/14 08:50:46;;;;;;;;;;;20.70;66.40;;;;;;5032028;28;1522;-67
2023/06/14 08:53:13;;;;;;;;;;;20.70;66.50;;;;;;5030941;28;1426;-67
2023/06/14 08:55:39;;;;;;;;;;;20.70;66.60;;;;;;5023523;28;1312;-68
2023/06/14 08:58:05;;;;;;;;;;;20.70;66.70;;;;;;5031600;28;880;-68
2023/06/14 09:00:30;;;;;;;;;;;20.70;66.70;;;;;;5031954;28;1902;-67
2023/06/14 09:02:57;;;;;;;;;;;20.80;66.70;;;;;;5031953;28;859;-67
2023/06/14 09:05:23;;;;;;;;;;;20.80;66.60;;;;;;5031463;28;1291;-67
2023/06/14 09:07:50;;;;;;;;;;;20.80;66.60;;;;;;5031023;28;919;-67
2023/06/14 09:10:15;;;;;;;;;;;20.80;66.60;;;;;;5027776;28;844;-67
2023/06/14 09:12:41;;;;;;;;;;;20.80;66.60;;;;;;5028943;28;1053;-67
2023/06/14 09:15:08;;;;;;;;;;;20.80;66.70;;;;;;5024826;28;1358;-67
2023/06/14 09:17:37;;;;;;;;;;;20.80;66.60;;;;;;5030851;28;907;-68
2023/06/14 09:20:05;;;;;;;;;;;20.80;66.70;;;;;;5026677;28;1902;-68
2023/06/14 09:22:31;;;;;;;;;;;20.80;66.70;;;;;;5027813;28;2096;-67
2023/06/14 09:24:57;;;;;;;;;;;20.80;66.80;;;;;;5030571;28;2060;-68
2023/06/14 09:27:22;;;;;;;;;;;20.80;67.40;;;;;;5030226;28;1443;-67
2023/06/14 09:29:48;;;;;;;;;;;20.80;67.40;;;;;;5029943;28;1681;-67
2023/06/14 09:32:13;;;;;;;;;;;20.80;67.40;;;;;;5029857;28;825;-67
2023/06/14 09:34:38;;;;;;;;;;;20.80;67.40;;;;;;5027864;28;1286;-67
2023/06/14 09:37:04;;;;;;;;;;;20.80;67.50;;;;;;5029045;28;2113;-67
2023/06/14 09:39:30;;;;;;;;;;;20.80;67.50;;;;;;5024578;28;1337;-67
2023/06/14 09:41:55;;;;;;;;;;;20.80;67.50;;;;;;5029466;28;1898;-67
2023/06/14 09:44:21;;;;;;;;;;;20.80;67.50;;;;;;5027761;28;1355;-67
2023/06/14 09:46:47;;;;;;;;;;;20.80;67.50;;;;;;5029744;28;872;-67
2023/06/14 09:49:12;;;;;;;;;;;20.80;67.60;;;;;;5023045;28;843;-67
2023/06/14 09:51:45;;;;;;;;;;;20.80;67.60;;;;;;5027400;28;1210;-67
2023/06/14 09:54:12;;;;;;;;;;;20.80;67.70;;;;;;5028847;28;1437;-67
2023/06/14 09:56:37;;;;;;;;;;;20.80;67.80;;;;;;5025845;28;2127;-67
2023/06/14 09:59:04;;;;;;;;;;;20.80;67.80;;;;;;5029994;28;1423;-67
2023/06/14 10:01:30;;;;;;;;;;;20.80;67.70;;;;;;5029554;28;1989;-67
2023/06/14 10:03:58;;;;;;;;;;;20.80;67.70;;;;;;5029473;28;1274;-67
2023/06/14 10:06:24;;;;;;;;;;;20.80;67.70;;;;;;5028501;28;1039;-67
2023/06/14 10:08:51;;;;;;;;;;;20.80;67.60;;;;;;5026414;28;871;-67
2023/06/14 10:11:17;;;;;;;;;;;20.80;67.70;;;;;;5030477;28;879;-67
2023/06/14 10:13:42;;;;;;;;;;;20.80;68.00;;;;;;5030510;28;1274;-67
2023/06/14 10:16:14;;;;;;;;;;;20.80;67.80;;;;;;5028535;28;924;-67
2023/06/14 10:18:42;;;;;;;;;;;20.90;67.90;;;;;;5028337;28;836;-67
2023/06/14 10:21:26;;;;;;;;;;;20.90;67.90;;;;;;5029479;28;1974;-67
2023/06/14 10:23:51;;;;;;;;;;;20.90;67.90;;;;;;5025139;28;1254;-67
2023/06/14 10:26:21;;;;;;;;;;;20.90;67.90;;;;;;5029936;28;876;-67
2023/06/14 10:28:57;;;;;;;;;;;20.90;67.90;;;;;;5023735;28;1544;-67
2023/06/14 10:31:23;;;;;;;;;;;20.90;67.80;;;;;;5029500;28;2039;-68
2023/06/14 10:33:52;;;;;;;;;;;20.90;67.90;;;;;;5029316;28;1542;-68
2023/06/14 10:36:34;;;;;;;;;;;20.90;67.90;;;;;;5028298;28;1206;-67
2023/06/14 10:39:08;;;;;;;;;;;20.90;67.80;;;;;;5028001;28;883;-68
2023/06/14 10:41:37;;;;;;;;;;;20.90;68.00;;;;;;5028791;28;1906;-68
2023/06/14 10:44:12;;;;;;;;;;;20.90;67.90;;;;;;5028672;28;1482;-67
2023/06/14 10:46:37;;;;;;;;;;;20.90;68.00;;;;;;5023100;28;1659;-70
2023/06/14 10:49:06;;;;;;;;;;;20.90;68.00;;;;;;5029420;28;876;-70
2023/06/14 10:51:46;;;;;;;;;;;20.90;68.00;;;;;;5029504;28;808;-70
2023/06/14 10:54:12;;;;;;;;;;;20.90;68.00;;;;;;5029599;28;1377;-70
2023/06/14 10:56:37;;;;;;;;;;;20.90;68.00;;;;;;5029620;28;1587;-70
2023/06/14 10:59:03;;;;;;;;;;;20.90;68.00;;;;;;5027871;28;916;-69
2023/06/14 11:01:32;;;;;;;;;;;20.90;68.00;;;;;;5029442;28;1898;-69
2023/06/14 11:03:59;;;;;;;;;;;20.90;68.00;;;;;;5026419;28;1288;-70
2023/06/14 11:06:28;;;;;;;;;;;20.90;68.50;;;;;;5026800;28;1463;-68
2023/06/14 11:09:03;;;;;;;;;;;20.90;68.30;;;;;;5017673;28;896;-68
2023/06/14 11:11:32;;;;;;;;;;;20.90;68.20;;;;;;5010172;28;1153;-68
2023/06/14 11:13:58;;;;;;;;;;;20.90;68.20;;;;;;5029325;28;1292;-68
2023/06/14 11:16:25;;;;;;;;;;;20.90;68.20;;;;;;5023112;28;1319;-67
2023/06/14 11:18:50;;;;;;;;;;;20.90;68.20;;;;;;5027232;28;1396;-68
2023/06/14 11:21:17;;;;;;;;;;;20.90;68.20;;;;;;5025711;28;1902;-67
2023/06/14 11:23:48;;;;;;;;;;;20.90;68.20;;;;;;5027863;28;1319;-67
2023/06/14 11:26:13;;;;;;;;;;;20.90;68.20;;;;;;5024851;28;864;-67
2023/06/14 11:28:40;;;;;;;;;;;20.90;68.30;;;;;;5026899;28;1540;-67
2023/06/14 11:31:05;;;;;;;;;;;20.90;68.20;;;;;;5027339;28;903;-67
2023/06/14 11:33:31;;;;;;;;;;;20.90;68.30;;;;;;5028186;28;1356;-67
2023/06/14 11:35:56;;;;;;;;;;;20.90;69.20;;;;;;5028224;28;953;-67
2023/06/14 11:38:22;;;;;;;;;;;21.00;69.30;;;;;;5025480;28;998;-67
2023/06/14 11:40:47;;;;;;;;;;;21.00;69.20;;;;;;5028458;28;1902;-67
2023/06/14 11:43:14;;;;;;;;;;;21.00;69.10;;;;;;5028812;28;876;-67
2023/06/14 11:45:39;;;;;;;;;;;21.00;69.10;;;;;;5028737;28;1353;-68
2023/06/14 11:48:05;;;;;;;;;;;21.00;69.20;;;;;;5028226;28;923;-68
2023/06/14 11:50:31;;;;;;;;;;;21.00;69.30;;;;;;5028041;28;1406;-68
2023/06/14 11:52:57;;;;;;;;;;;21.00;69.10;;;;;;5027007;28;1174;-68
2023/06/14 11:55:23;;;;;;;;;;;21.00;69.10;;;;;;5028374;28;1277;-68
2023/06/14 11:57:48;;;;;;;;;;;21.00;69.20;;;;;;5027542;28;832;-68
2023/06/14 12:00:15;;;;;;;;;;;21.00;69.10;;;;;;5026465;28;1914;-68
2023/06/14 12:02:41;;;;;;;;;;;21.00;69.10;;;;;;5027978;28;899;-67
2023/06/14 12:05:09;;;;;;;;;;;21.00;69.30;;;;;;5028446;28;1359;-67
2023/06/14 12:07:36;;;;;;;;;;;21.00;68.80;;;;;;5024623;28;865;-67
2023/06/14 12:10:02;;;;;;;;;;;21.00;67.90;;;;;;5018616;28;879;-67
2023/06/14 12:12:29;;;;;;;;;;;20.90;67.60;;;;;;5025434;28;866;-67
2023/06/14 12:14:57;;;;;;;;;;;20.90;67.80;;;;;;5028919;28;1277;-67
2023/06/14 12:17:23;;;;;;;;;;;20.90;67.90;;;;;;5032910;28;850;-67
2023/06/14 12:19:49;;;;;;;;;;;20.80;67.90;;;;;;5031691;28;1364;-67
2023/06/14 12:22:14;;;;;;;;;;;20.80;67.80;;;;;;5028025;28;1966;-67
2023/06/14 12:24:42;;;;;;;;;;;20.80;67.60;;;;;;5032157;28;1264;-67
2023/06/14 12:27:08;;;;;;;;;;;20.80;67.50;;;;;;5031508;28;1369;-67
2023/06/14 12:29:33;;;;;;;;;;;20.80;67.30;;;;;;5032515;28;913;-67
2023/06/14 12:31:59;;;;;;;;;;;20.80;67.10;;;;;;5025628;28;831;-67
2023/06/14 12:34:26;;;;;;;;;;;20.80;67.10;;;;;;5029028;28;1369;-67
2023/06/14 12:36:53;;;;;;;;;;;20.80;66.80;;;;;;5027272;28;1029;-67
2023/06/14 12:39:18;;;;;;;;;;;20.70;66.60;;;;;;5030262;28;1667;-67
2023/06/14 12:41:44;;;;;;;;;;;20.70;66.40;;;;;;5028628;28;2352;-67
2023/06/14 12:44:10;;;;;;;;;;;20.70;66.30;;;;;;5025739;28;1320;-67
2023/06/14 12:46:36;;;;;;;;;;;20.70;66.20;;;;;;5029954;28;793;-67
2023/06/14 12:49:02;;;;;;;;;;;20.70;66.10;;;;;;5026098;28;836;-68
2023/06/14 12:51:27;;;;;;;;;;;20.70;66.00;;;;;;5027894;28;1065;-68
2023/06/14 12:53:52;;;;;;;;;;;20.70;65.80;;;;;;5032064;28;1268;-67
2023/06/14 12:56:18;;;;;;;;;;;20.70;65.50;;;;;;5029566;28;859;-67
2023/06/14 12:58:43;;;;;;;;;;;20.70;65.10;;;;;;5027009;28;883;-68
2023/06/14 13:01:09;;;;;;;;;;;20.70;65.10;;;;;;5028796;28;1895;-67
2023/06/14 13:03:35;;;;;;;;;;;20.70;65.10;;;;;;5030560;28;1265;-67
2023/06/14 13:06:01;;;;;;;;;;;20.70;65.10;;;;;;5032178;28;926;-67
2023/06/14 13:08:27;;;;;;;;;;;20.70;65.10;;;;;;5031087;28;901;-67
2023/06/14 13:10:53;;;;;;;;;;;20.70;65.10;;;;;;5031039;28;922;-68
2023/06/14 13:13:18;;;;;;;;;;;20.70;65.00;;;;;;5030240;28;876;-67
2023/06/14 13:15:45;;;;;;;;;;;20.70;64.90;;;;;;5027430;28;1283;-67
2023/06/14 13:18:12;;;;;;;;;;;20.70;64.80;;;;;;5029859;28;843;-67
2023/06/14 13:20:38;;;;;;;;;;;20.70;64.70;;;;;;5030366;28;1967;-67
2023/06/14 13:23:05;;;;;;;;;;;20.70;64.60;;;;;;5031160;28;863;-67
2023/06/14 13:25:31;;;;;;;;;;;20.70;64.40;;;;;;5027982;28;1227;-67
2023/06/14 13:27:57;;;;;;;;;;;20.70;64.30;;;;;;5029726;28;1379;-67
2023/06/14 13:30:22;;;;;;;;;;;20.70;64.20;;;;;;5029824;28;749;-67
2023/06/14 13:32:48;;;;;;;;;;;20.70;64.30;;;;;;5030164;28;2049;-67
2023/06/14 13:35:13;;;;;;;;;;;20.70;64.50;;;;;;5030015;28;1296;-68
2023/06/14 13:37:39;;;;;;;;;;;20.70;64.30;;;;;;5030450;28;1050;-68
2023/06/14 13:40:05;;;;;;;;;;;20.70;64.20;;;;;;5029639;28;1955;-68
2023/06/14 13:42:31;;;;;;;;;;;20.70;64.00;;;;;;5030435;28;877;-68
2023/06/14 13:44:58;;;;;;;;;;;20.70;63.90;;;;;;5030038;28;1361;-66
2023/06/14 13:47:23;;;;;;;;;;;20.70;63.90;;;;;;5027607;28;912;-67
2023/06/14 13:49:48;;;;;;;;;;;20.70;63.80;;;;;;5026086;28;884;-69
2023/06/14 13:52:14;;;;;;;;;;;20.70;63.60;;;;;;5030656;28;847;-67
2023/06/14 13:54:40;;;;;;;;;;;20.70;63.40;;;;;;5027996;28;1344;-66
2023/06/14 13:57:06;;;;;;;;;;;20.70;63.60;;;;;;5024256;28;856;-66
2023/06/14 13:59:31;;;;;;;;;;;20.70;63.30;;;;;;5028416;28;907;-65
2023/06/14 14:01:57;;;;;;;;;;;20.70;63.20;;;;;;5031021;28;1906;-65
2023/06/14 14:04:22;;;;;;;;;;;20.70;63.60;;;;;;5031107;28;1275;-69
2023/06/14 14:06:48;;;;;;;;;;;20.70;64.00;;;;;;5029249;28;826;-68
2023/06/14 14:09:14;;;;;;;;;;;20.60;63.90;;;;;;5030553;28;947;-69
2023/06/14 14:11:41;;;;;;;;;;;20.60;63.80;;;;;;5027361;28;827;-68
2023/06/14 14:14:06;;;;;;;;;;;20.60;63.60;;;;;;5026979;28;1252;-68
2023/06/14 14:16:32;;;;;;;;;;;20.60;63.70;;;;;;5026251;28;812;-67
2023/06/14 14:18:57;;;;;;;;;;;20.60;64.20;;;;;;5028255;28;1014;-67
2023/06/14 14:21:23;;;;;;;;;;;20.60;64.30;;;;;;5029022;28;1972;-67
2023/06/14 14:23:49;;;;;;;;;;;20.60;64.30;;;;;;5028648;28;1318;-67
2023/06/14 14:26:15;;;;;;;;;;;20.70;64.60;;;;;;5025742;28;843;-67
2023/06/14 14:28:40;;;;;;;;;;;20.70;64.50;;;;;;5026212;28;1390;-67
2023/06/14 14:31:06;;;;;;;;;;;20.60;64.30;;;;;;5029644;28;855;-67